createdAt,value
2018-08-23T00:00:41.520Z,89.81
2018-08-23T00:01:41.773Z,87.5
2018-08-23T00:02:41.499Z,88.37
2018-08-23T00:03:41.535Z,86.35
2018-08-23T00:04:41.482Z,87.3
2018-08-23T00:05:41.469Z,87.6
2018-08-23T00:06:41.730Z,87.5
2018-08-23T00:07:41.721Z,87.79
2018-08-23T00:08:41.449Z,87.5
2018-08-23T00:09:41.453Z,85.96
2018-08-23T00:10:41.700Z,86.4
2018-08-23T00:11:41.428Z,86.05
2018-08-23T00:12:41.413Z,85.09
2018-08-23T00:13:41.707Z,84.47
2018-08-23T00:14:41.390Z,85.57
2018-08-23T00:15:41.382Z,85.34
2018-08-23T00:16:41.396Z,85.63
2018-08-23T00:17:41.629Z,84.95
2018-08-23T00:18:41.355Z,85.82
2018-08-23T00:19:41.342Z,85.24
2018-08-23T00:20:41.334Z,83.99
2018-08-23T00:21:41.591Z,83.8
2018-08-23T00:22:41.577Z,82.54
2018-08-23T00:23:41.592Z,83.31
2018-08-23T00:24:41.298Z,82.16
2018-08-23T00:25:41.550Z,83.8
2018-08-23T00:26:41.543Z,83.03
2018-08-23T00:27:41.273Z,82.54
2018-08-23T00:28:41.526Z,81.1
2018-08-23T00:29:41.522Z,80.62
2018-08-23T00:30:41.506Z,80.38
2018-08-23T00:31:41.242Z,79.46
2018-08-23T00:32:41.492Z,80.33
2018-08-23T00:33:41.481Z,77.44
2018-08-23T00:34:41.469Z,77.98
2018-08-23T00:35:41.200Z,78.46
2018-08-23T00:36:41.448Z,80
2018-08-23T00:37:41.440Z,80.68
2018-08-23T00:38:41.431Z,78.21
2018-08-23T00:39:41.427Z,79.13
2018-08-23T00:40:41.150Z,77.5
2018-08-23T00:41:41.403Z,78.65
2018-08-23T00:42:41.131Z,79.13
2018-08-23T00:43:41.119Z,77.98
2018-08-23T00:44:41.375Z,78.08
2018-08-23T00:45:41.101Z,77.01
2018-08-23T00:46:41.363Z,77.69
2018-08-23T00:47:41.084Z,78.08
2018-08-23T00:48:41.071Z,78.17
2018-08-23T00:49:41.330Z,78.75
2018-08-23T00:50:41.319Z,78.56
2018-08-23T00:51:41.309Z,77.88
2018-08-23T00:52:41.302Z,76.92
2018-08-23T00:53:41.496Z,78.36
2018-08-23T00:54:41.283Z,77.01
2018-08-23T00:55:41.011Z,78.08
2018-08-23T00:56:41.004Z,78.36
2018-08-23T00:57:40.989Z,77.4
2018-08-23T00:58:41.239Z,77.88
2018-08-23T00:59:41.235Z,77.4
2018-08-23T01:00:41.227Z,76.73
2018-08-23T01:01:40.951Z,75.86
2018-08-23T01:02:40.940Z,73.46
2018-08-23T01:03:41.201Z,74.8
2018-08-23T01:04:40.921Z,75.19
2018-08-23T01:05:41.180Z,75.19
2018-08-23T01:06:41.166Z,74.9
2018-08-23T01:07:41.167Z,74.86
2018-08-23T01:08:40.889Z,74.8
2018-08-23T01:09:41.140Z,73.99
2018-08-23T01:10:40.863Z,73.32
2018-08-23T01:11:40.867Z,74.09
2018-08-23T01:12:41.116Z,72.55
2018-08-23T01:13:40.835Z,73.13
2018-08-23T01:14:41.089Z,73.9
2018-08-23T01:15:41.082Z,73.32
2018-08-23T01:16:41.079Z,73.42
2018-08-23T01:17:41.061Z,72.94
2018-08-23T01:18:40.796Z,73.42
2018-08-23T01:19:41.038Z,71.49
2018-08-23T01:20:41.035Z,72.45
2018-08-23T01:21:41.022Z,72.84
2018-08-23T01:22:40.748Z,71.49
2018-08-23T01:23:41.007Z,71.49
2018-08-23T01:24:40.992Z,71.3
2018-08-23T01:25:40.985Z,70.53
2018-08-23T01:26:40.709Z,69.85
2018-08-23T01:27:40.700Z,69.67
2018-08-23T01:28:40.954Z,68.41
2018-08-23T01:29:40.948Z,67.65
2018-08-23T01:30:40.931Z,68.22
2018-08-23T01:31:40.926Z,68.7
2018-08-23T01:32:40.913Z,67.07
2018-08-23T01:33:40.645Z,68.41
2018-08-23T01:34:40.903Z,67.65
2018-08-23T01:35:40.883Z,66.78
2018-08-23T01:36:40.875Z,67.45
2018-08-23T01:37:40.865Z,66.49
2018-08-23T01:38:40.854Z,63.31
2018-08-23T01:39:40.846Z,63.41
2018-08-23T01:40:40.831Z,64.47
2018-08-23T01:41:40.834Z,64.86
2018-08-23T01:42:40.554Z,65.24
2018-08-23T01:43:40.810Z,64.28
2018-08-23T01:44:40.544Z,64.73
2018-08-23T01:45:40.789Z,65.59
2018-08-23T01:46:40.783Z,64.53
2018-08-23T01:47:40.502Z,65.01
2018-08-23T01:48:40.755Z,65.4
2018-08-23T01:49:40.755Z,66.55
2018-08-23T01:50:40.479Z,63.38
2018-08-23T01:51:40.732Z,64.63
2018-08-23T01:52:40.719Z,64.73
2018-08-23T01:53:40.450Z,64.34
2018-08-23T01:54:40.435Z,60.59
2018-08-23T01:55:40.692Z,58.67
2018-08-23T01:56:40.688Z,59.63
2018-08-23T01:57:40.671Z,59.34
2018-08-23T01:58:40.397Z,59.63
2018-08-23T01:59:40.395Z,57.7
2018-08-23T02:00:40.380Z,57.6
2018-08-23T02:01:40.370Z,58.28
2018-08-23T02:02:40.616Z,59.05
2018-08-23T02:03:40.342Z,59.44
2018-08-23T02:04:40.596Z,59.72
2018-08-23T02:05:40.591Z,58.18
2018-08-23T02:06:40.312Z,56.71
2018-08-23T02:07:40.568Z,55.68
2018-08-23T02:08:40.297Z,57.58
2018-08-23T02:09:40.284Z,58.18
2018-08-23T02:10:40.279Z,58.28
2018-08-23T02:11:40.265Z,58.83
2018-08-23T02:12:40.256Z,58.25
2018-08-23T02:13:40.513Z,58.35
2018-08-23T02:14:40.499Z,58.73
2018-08-23T02:15:40.487Z,58.15
2018-08-23T02:16:40.212Z,58.15
2018-08-23T02:17:40.203Z,57.77
2018-08-23T02:18:40.198Z,57.87
2018-08-23T02:19:40.188Z,57.58
2018-08-23T02:20:40.436Z,57.87
2018-08-23T02:21:40.164Z,54.5
2018-08-23T02:22:40.154Z,54.89
2018-08-23T02:23:40.140Z,54.5
2018-08-23T02:24:40.403Z,54.31
2018-08-23T02:25:40.135Z,54.79
2018-08-23T02:26:40.377Z,49.41
2018-08-23T02:27:40.100Z,49.12
2018-08-23T02:28:40.093Z,45.37
2018-08-23T02:29:40.344Z,44.99
2018-08-23T02:30:40.333Z,45.56
2018-08-23T02:31:40.058Z,44.99
2018-08-23T02:32:40.316Z,44.7
2018-08-23T02:33:40.302Z,44.12
2018-08-23T02:34:40.027Z,43.74
2018-08-23T02:35:40.283Z,44.41
2018-08-23T02:36:40.013Z,42.39
2018-08-23T02:37:40.259Z,41.33
2018-08-23T02:38:40.258Z,41.14
2018-08-23T02:39:40.246Z,41.05
2018-08-23T02:40:40.230Z,41.24
2018-08-23T02:41:40.219Z,40.47
2018-08-23T02:42:39.949Z,40.37
2018-08-23T02:43:39.936Z,40.85
2018-08-23T02:44:40.406Z,42.1
2018-08-23T02:45:39.917Z,43.07
2018-08-23T02:46:39.910Z,43.26
2018-08-23T02:47:40.179Z,43.16
2018-08-23T02:48:40.148Z,43.26
2018-08-23T02:49:39.875Z,43.43
2018-08-23T02:50:39.864Z,42.87
2018-08-23T02:51:39.855Z,42.1
2018-08-23T02:52:40.105Z,41.79
2018-08-23T02:53:40.504Z,41.79
2018-08-23T02:54:39.830Z,41.31
2018-08-23T02:55:40.078Z,41.6
2018-08-23T02:56:40.067Z,41.5
2018-08-23T02:57:39.795Z,37.95
2018-08-23T02:58:40.049Z,35.64
2018-08-23T02:59:40.032Z,36.6
2018-08-23T03:00:40.240Z,37.66
2018-08-23T03:01:39.748Z,38.81
2018-08-23T03:02:39.743Z,39.11
2018-08-23T03:03:39.725Z,39.58
2018-08-23T03:04:39.717Z,40.06
2018-08-23T03:05:39.971Z,40.45
2018-08-23T03:06:39.962Z,40.25
2018-08-23T03:07:39.950Z,40.73
2018-08-23T03:08:39.941Z,40.35
2018-08-23T03:09:39.937Z,40.93
2018-08-23T03:10:39.920Z,40.83
2018-08-23T03:11:39.644Z,40.83
2018-08-23T03:12:39.637Z,40.83
2018-08-23T03:13:39.896Z,40.25
2018-08-23T03:14:39.893Z,39.49
2018-08-23T03:15:39.601Z,38.91
2018-08-23T03:16:39.860Z,39.01
2018-08-23T03:17:39.579Z,38.91
2018-08-23T03:18:39.571Z,39.01
2018-08-23T03:19:39.821Z,39.49
2018-08-23T03:20:39.549Z,39.66
2018-08-23T03:21:39.545Z,39.68
2018-08-23T03:22:39.798Z,39.47
2018-08-23T03:23:39.777Z,39.66
2018-08-23T03:24:39.766Z,39.66
2018-08-23T03:25:39.496Z,39.18
2018-08-23T03:26:39.755Z,38.7
2018-08-23T03:27:39.745Z,38.89
2018-08-23T03:28:39.461Z,38.7
2018-08-23T03:29:39.718Z,38.89
2018-08-23T03:30:39.444Z,38.79
2018-08-23T03:31:39.432Z,38.6
2018-08-23T03:32:39.688Z,38.7
2018-08-23T03:33:39.409Z,38.41
2018-08-23T03:34:39.664Z,38.51
2018-08-23T03:35:39.653Z,38.41
2018-08-23T03:36:39.381Z,38.51
2018-08-23T03:37:39.636Z,38.6
2018-08-23T03:38:39.353Z,38.41
2018-08-23T03:39:39.608Z,38.22
2018-08-23T03:40:39.598Z,38.41
2018-08-23T03:41:39.323Z,38.12
2018-08-23T03:42:39.573Z,37.35
2018-08-23T03:43:39.564Z,36.58
2018-08-23T03:44:39.580Z,36.58
2018-08-23T03:45:39.274Z,35.53
2018-08-23T03:46:39.524Z,35.53
2018-08-23T03:47:39.253Z,35.53
2018-08-23T03:48:39.244Z,35.13
2018-08-23T03:49:39.237Z,35.22
2018-08-23T03:50:39.484Z,34.95
2018-08-23T03:51:39.470Z,34.55
2018-08-23T03:52:39.777Z,34.27
2018-08-23T03:53:39.454Z,34.28
2018-08-23T03:54:39.175Z,34.07
2018-08-23T03:55:39.434Z,33.98
2018-08-23T03:56:39.415Z,33.98
2018-08-23T03:57:39.142Z,33.98
2018-08-23T03:58:39.396Z,34.17
2018-08-23T03:59:39.385Z,33.88
2018-08-23T04:00:39.381Z,32.44
2018-08-23T04:01:39.368Z,31.38
2018-08-23T04:02:39.353Z,31.21
2018-08-23T04:03:39.080Z,30.71
2018-08-23T04:04:39.068Z,30.52
2018-08-23T04:05:39.060Z,30.52
2018-08-23T04:06:39.099Z,30.81
2018-08-23T04:07:39.048Z,30.62
2018-08-23T04:08:39.289Z,30.52
2018-08-23T04:09:39.012Z,30.62
2018-08-23T04:10:38.998Z,30.52
2018-08-23T04:11:39.256Z,30.62
2018-08-23T04:12:38.975Z,29.66
2018-08-23T04:13:38.974Z,29.75
2018-08-23T04:14:38.955Z,29.56
2018-08-23T04:15:39.224Z,29.94
2018-08-23T04:16:39.197Z,29.56
2018-08-23T04:17:38.921Z,30.52
2018-08-23T04:18:39.175Z,30.43
2018-08-23T04:19:38.899Z,30.43
2018-08-23T04:20:39.155Z,30.62
2018-08-23T04:21:39.146Z,29.66
2018-08-23T04:22:38.884Z,29.85
2018-08-23T04:23:38.862Z,29.66
2018-08-23T04:24:39.107Z,30.14
2018-08-23T04:25:38.835Z,30.04
2018-08-23T04:26:38.821Z,30.14
2018-08-23T04:27:39.075Z,29.75
2018-08-23T04:28:39.071Z,29.66
2018-08-23T04:29:38.788Z,28.31
2018-08-23T04:30:39.042Z,28.41
2018-08-23T04:31:38.766Z,28.6
2018-08-23T04:32:38.752Z,28.5
2018-08-23T04:33:38.742Z,28.6
2018-08-23T04:34:38.732Z,28.41
2018-08-23T04:35:38.988Z,28.31
2018-08-23T04:36:38.709Z,27.93
2018-08-23T04:37:38.701Z,27.16
2018-08-23T04:38:38.691Z,26.87
2018-08-23T04:39:38.678Z,26.1
2018-08-23T04:40:38.929Z,25.72
2018-08-23T04:41:38.654Z,24.95
2018-08-23T04:42:38.908Z,25.05
2018-08-23T04:43:38.633Z,25.53
2018-08-23T04:44:38.618Z,25.43
2018-08-23T04:45:38.870Z,25.43
2018-08-23T04:46:38.858Z,25.05
2018-08-23T04:47:38.587Z,25.24
2018-08-23T04:48:38.574Z,25.34
2018-08-23T04:49:38.566Z,25.34
2018-08-23T04:50:38.828Z,25.72
2018-08-23T04:51:38.875Z,25.62
2018-08-23T04:52:38.796Z,25.62
2018-08-23T04:53:38.522Z,25.34
2018-08-23T04:54:38.772Z,25.34
2018-08-23T04:55:38.771Z,25.24
2018-08-23T04:56:38.747Z,24.86
2018-08-23T04:57:38.478Z,24.86
2018-08-23T04:58:38.465Z,24.86
2018-08-23T04:59:38.719Z,24.38
2018-08-23T05:00:38.709Z,24.57
2018-08-23T05:01:38.698Z,23.9
2018-08-23T05:02:38.680Z,23.8
2018-08-23T05:03:38.674Z,23.61
2018-08-23T05:04:38.665Z,23.32
2018-08-23T05:05:38.646Z,23.22
2018-08-23T05:06:38.380Z,22.27
2018-08-23T05:07:38.629Z,21.5
2018-08-23T05:08:38.352Z,21.11
2018-08-23T05:09:38.605Z,20.73
2018-08-23T05:10:38.329Z,20.73
2018-08-23T05:11:38.633Z,20.83
2018-08-23T05:12:38.570Z,20.73
2018-08-23T05:13:38.559Z,21.02
2018-08-23T05:14:38.283Z,21.69
2018-08-23T05:15:38.533Z,21.5
2018-08-23T05:16:38.526Z,21.59
2018-08-23T05:17:38.249Z,21.69
2018-08-23T05:18:38.525Z,21.69
2018-08-23T05:19:38.229Z,21.5
2018-08-23T05:20:38.217Z,21.69
2018-08-23T05:21:38.466Z,21.41
2018-08-23T05:22:38.192Z,21.21
2018-08-23T05:23:38.179Z,20.83
2018-08-23T05:24:38.165Z,20.35
2018-08-23T05:25:38.156Z,20.44
2018-08-23T05:26:38.143Z,19.48
2018-08-23T05:27:38.398Z,19.3
2018-08-23T05:28:38.390Z,18.73
2018-08-23T05:29:38.116Z,18.05
2018-08-23T05:30:38.364Z,18.05
2018-08-23T05:31:38.088Z,17.47
2018-08-23T05:32:38.344Z,17.09
2018-08-23T05:33:38.332Z,17.29
2018-08-23T05:34:38.318Z,16.8
2018-08-23T05:35:38.309Z,16.9
2018-08-23T05:36:38.294Z,16.52
2018-08-23T05:37:38.288Z,16.42
2018-08-23T05:38:38.275Z,16.13
2018-08-23T05:39:38.267Z,15.46
2018-08-23T05:40:38.252Z,15.46
2018-08-23T05:41:37.981Z,15.36
2018-08-23T05:42:38.227Z,15.55
2018-08-23T05:43:38.218Z,15.65
2018-08-23T05:44:37.943Z,15.84
2018-08-23T05:45:38.196Z,16.03
2018-08-23T05:46:38.189Z,15.75
2018-08-23T05:47:37.956Z,15.84
2018-08-23T05:48:37.899Z,15.75
2018-08-23T05:49:37.892Z,15.94
2018-08-23T05:50:38.139Z,15.75
2018-08-23T05:51:38.132Z,15.84
2018-08-23T05:52:38.117Z,15.75
2018-08-23T05:53:38.108Z,15.37
2018-08-23T05:54:38.097Z,15.65
2018-08-23T05:55:37.824Z,15.75
2018-08-23T05:56:37.812Z,15.37
2018-08-23T05:57:37.801Z,15.95
2018-08-23T05:58:38.064Z,16.14
2018-08-23T05:59:38.042Z,15.47
2018-08-23T06:00:38.039Z,15.56
2018-08-23T06:01:38.022Z,15.37
2018-08-23T06:02:37.800Z,15.56
2018-08-23T06:03:37.739Z,15.56
2018-08-23T06:04:37.728Z,15.75
2018-08-23T06:05:37.985Z,15.85
2018-08-23T06:06:37.966Z,16.14
2018-08-23T06:07:37.693Z,15.85
2018-08-23T06:08:37.949Z,15.85
2018-08-23T06:09:37.717Z,15.66
2018-08-23T06:10:37.919Z,15.75
2018-08-23T06:11:37.914Z,16.15
2018-08-23T06:12:37.637Z,16.15
2018-08-23T06:13:37.891Z,15.86
2018-08-23T06:14:37.879Z,16.15
2018-08-23T06:15:37.605Z,16.24
2018-08-23T06:16:37.591Z,16.63
2018-08-23T06:17:37.849Z,16.82
2018-08-23T06:18:37.573Z,17.11
2018-08-23T06:19:37.826Z,17.69
2018-08-23T06:20:38.075Z,17.69
2018-08-23T06:21:37.822Z,17.59
2018-08-23T06:22:37.797Z,18.16
2018-08-23T06:23:37.523Z,18.16
2018-08-23T06:24:37.516Z,18.46
2018-08-23T06:25:37.767Z,18.75
2018-08-23T06:26:37.764Z,19.13
2018-08-23T06:27:37.948Z,18.95
2018-08-23T06:28:37.739Z,19.9
2018-08-23T06:29:37.743Z,19.04
2018-08-23T06:30:37.712Z,20.2
2018-08-23T06:31:37.704Z,19.81
2018-08-23T06:32:37.694Z,20.3
2018-08-23T06:33:38.167Z,21.07
2018-08-23T06:34:37.677Z,21.94
2018-08-23T06:35:37.851Z,22.22
2018-08-23T06:36:37.385Z,23.19
2018-08-23T06:37:37.377Z,23.86
2018-08-23T06:38:37.431Z,24.24
2018-08-23T06:39:37.620Z,24.54
2018-08-23T06:40:37.608Z,24.15
2018-08-23T06:41:37.343Z,23.96
2018-08-23T06:42:37.597Z,24.63
2018-08-23T06:43:37.589Z,24.92
2018-08-23T06:44:37.785Z,24.84
2018-08-23T06:45:37.556Z,25.12
2018-08-23T06:46:37.557Z,26.09
2018-08-23T06:47:37.539Z,26.37
2018-08-23T06:48:37.535Z,26.18
2018-08-23T06:49:37.257Z,26.57
2018-08-23T06:50:37.514Z,26.57
2018-08-23T06:51:37.507Z,26.78
2018-08-23T06:52:37.224Z,27.35
2018-08-23T06:53:37.216Z,26.58
2018-08-23T06:54:37.673Z,27.16
2018-08-23T06:55:37.466Z,29.95
2018-08-23T06:56:37.460Z,30.43
2018-08-23T06:57:37.176Z,30.82
2018-08-23T06:58:37.171Z,30.91
2018-08-23T06:59:37.430Z,30.91
2018-08-23T07:00:37.150Z,32.36
2018-08-23T07:01:37.410Z,34.29
2018-08-23T07:02:37.394Z,34.09
2018-08-23T07:03:37.122Z,33.51
2018-08-23T07:04:37.380Z,33.81
2018-08-23T07:05:37.110Z,35.85
2018-08-23T07:06:37.130Z,36.81
2018-08-23T07:07:37.355Z,37.1
2018-08-23T07:08:37.072Z,37.29
2018-08-23T07:09:37.330Z,38.16
2018-08-23T07:10:37.068Z,38.64
2018-08-23T07:11:37.434Z,38.06
2018-08-23T07:12:37.304Z,38.54
2018-08-23T07:13:37.034Z,38.35
2018-08-23T07:14:37.283Z,38.91
2018-08-23T07:15:37.019Z,39.51
2018-08-23T07:16:37.270Z,39.01
2018-08-23T07:17:37.521Z,39.22
2018-08-23T07:18:37.248Z,38.83
2018-08-23T07:19:36.975Z,38.83
2018-08-23T07:20:36.970Z,38.35
2018-08-23T07:21:36.960Z,38.83
2018-08-23T07:22:37.332Z,40.19
2018-08-23T07:23:36.939Z,40.95
2018-08-23T07:24:37.198Z,41.82
2018-08-23T07:25:36.921Z,41.63
2018-08-23T07:26:37.259Z,41.24
2018-08-23T07:27:36.897Z,42.69
2018-08-23T07:28:36.895Z,41.63
2018-08-23T07:29:37.150Z,41.72
2018-08-23T07:30:37.138Z,44.23
2018-08-23T07:31:36.868Z,44.23
2018-08-23T07:32:36.858Z,45.48
2018-08-23T07:33:36.858Z,44.62
2018-08-23T07:34:36.837Z,45.68
2018-08-23T07:35:36.829Z,45.97
2018-08-23T07:36:37.088Z,46.15
2018-08-23T07:37:36.810Z,46.18
2018-08-23T07:38:37.069Z,47.51
2018-08-23T07:39:37.057Z,50.04
2018-08-23T07:40:37.117Z,48.57
2018-08-23T07:41:36.772Z,50.23
2018-08-23T07:42:37.028Z,50.52
2018-08-23T07:43:36.756Z,50.42
2018-08-23T07:44:37.016Z,49.55
2018-08-23T07:45:37.001Z,50.81
2018-08-23T07:46:36.993Z,52.16
2018-08-23T07:47:36.980Z,54.38
2018-08-23T07:48:37.175Z,53.99
2018-08-23T07:49:36.968Z,53.7
2018-08-23T07:50:36.964Z,58.65
2018-08-23T07:51:36.684Z,59.8
2018-08-23T07:52:36.977Z,58.04
2018-08-23T07:53:36.666Z,58.26
2018-08-23T07:54:36.927Z,61.44
2018-08-23T07:55:36.912Z,60.48
2018-08-23T07:56:36.900Z,60.77
2018-08-23T07:57:36.894Z,64.53
2018-08-23T07:58:36.892Z,66.75
2018-08-23T07:59:36.875Z,67.43
2018-08-23T08:00:36.869Z,66.56
2018-08-23T08:01:36.858Z,65.59
2018-08-23T08:02:36.593Z,65.43
2018-08-23T08:03:36.846Z,66.01
2018-08-23T08:04:36.573Z,66.2
2018-08-23T08:05:36.822Z,70.16
2018-08-23T08:06:36.555Z,69.68
2018-08-23T08:07:36.805Z,69.68
2018-08-23T08:08:36.799Z,71.51
2018-08-23T08:09:36.788Z,72.19
2018-08-23T08:10:36.518Z,73.06
2018-08-23T08:11:36.512Z,72.09
2018-08-23T08:12:36.780Z,72.38
2018-08-23T08:13:36.496Z,73.73
2018-08-23T08:14:36.755Z,73.73
2018-08-23T08:15:36.480Z,76.86
2018-08-23T08:16:36.468Z,76.95
2018-08-23T08:17:36.721Z,76.95
2018-08-23T08:18:36.449Z,80.14
2018-08-23T08:19:36.761Z,80.14
2018-08-23T08:20:36.437Z,82.07
2018-08-23T08:21:36.746Z,81.92
2018-08-23T08:22:36.684Z,82.4
2018-08-23T08:23:36.682Z,81.68
2018-08-23T08:24:36.398Z,81.44
2018-08-23T08:25:36.396Z,83.18
2018-08-23T08:26:36.672Z,83.66
2018-08-23T08:27:36.378Z,85.49
2018-08-23T08:28:36.376Z,84.82
2018-08-23T08:29:36.622Z,87.04
2018-08-23T08:30:36.622Z,87.66
2018-08-23T08:31:36.346Z,92.59
2018-08-23T08:32:36.336Z,91.24
2018-08-23T08:33:36.593Z,94.86
2018-08-23T08:34:36.371Z,96.02
2018-08-23T08:35:36.580Z,93.51
2018-08-23T08:36:36.305Z,94.76
2018-08-23T08:37:36.298Z,93.51
2018-08-23T08:38:36.568Z,94.09
2018-08-23T08:39:36.546Z,94.67
2018-08-23T08:40:36.274Z,96.22
2018-08-23T08:41:36.269Z,96.75
2018-08-23T08:42:36.263Z,98.68
2018-08-23T08:43:36.519Z,99.99
2018-08-23T08:44:36.558Z,99.74
2018-08-23T08:45:36.511Z,99.99
2018-08-23T08:46:36.500Z,99.99
2018-08-23T08:47:36.222Z,99.99
2018-08-23T08:48:36.232Z,99.99
2018-08-23T08:49:36.264Z,99.99
2018-08-23T08:50:36.294Z,99.99
2018-08-23T08:51:36.462Z,99.99
2018-08-23T08:52:36.187Z,99.99
2018-08-23T08:53:36.183Z,99.99
2018-08-23T08:54:36.380Z,99.99
2018-08-23T08:55:36.434Z,99.99
2018-08-23T08:56:36.432Z,99.99
2018-08-23T08:57:36.204Z,99.99
2018-08-23T08:58:36.152Z,99.99
2018-08-23T08:59:36.140Z,99.99
2018-08-23T09:00:36.134Z,99.99
2018-08-23T09:01:36.128Z,99.99
2018-08-23T09:02:36.384Z,99.99
2018-08-23T09:03:36.384Z,99.99
2018-08-23T09:04:36.419Z,99.99
2018-08-23T09:05:36.099Z,99.99
2018-08-23T09:06:36.091Z,99.99
2018-08-23T09:07:36.085Z,99.99
2018-08-23T09:08:36.079Z,99.99
2018-08-23T09:09:36.107Z,99.99
2018-08-23T09:10:36.331Z,99.99
2018-08-23T09:11:36.330Z,99.99
2018-08-23T09:12:36.048Z,99.99
2018-08-23T09:13:36.304Z,99.99
2018-08-23T09:14:36.037Z,99.99
2018-08-23T09:15:36.032Z,99.99
2018-08-23T09:16:36.287Z,99.99
2018-08-23T09:17:36.015Z,99.99
2018-08-23T09:18:36.344Z,99.99
2018-08-23T09:19:36.002Z,99.99
2018-08-23T09:20:36.084Z,99.99
2018-08-23T09:21:35.992Z,99.99
2018-08-23T09:22:35.984Z,99.99
2018-08-23T09:23:36.243Z,99.99
2018-08-23T09:24:36.241Z,99.99
2018-08-23T09:25:35.961Z,99.99
2018-08-23T09:26:36.220Z,99.99
2018-08-23T09:27:36.215Z,99.99
2018-08-23T09:28:35.945Z,99.99
2018-08-23T09:29:35.937Z,99.99
2018-08-23T09:30:36.212Z,99.99
2018-08-23T09:31:35.925Z,99.99
2018-08-23T09:32:35.922Z,99.99
2018-08-23T09:33:35.915Z,99.99
2018-08-23T09:34:36.171Z,99.99
2018-08-23T09:35:36.172Z,99.99
2018-08-23T09:36:36.161Z,99.99
2018-08-23T09:37:36.156Z,99.99
2018-08-23T09:38:36.147Z,99.99
2018-08-23T09:39:35.880Z,99.99
2018-08-23T09:40:36.138Z,99.99
2018-08-23T09:41:36.146Z,99.99
2018-08-23T09:42:35.863Z,99.99
2018-08-23T09:43:36.123Z,99.99
2018-08-23T09:44:35.850Z,99.99
2018-08-23T09:45:36.111Z,99.99
2018-08-23T09:46:36.111Z,99.99
2018-08-23T09:47:36.095Z,99.99
2018-08-23T09:48:36.084Z,99.99
2018-08-23T09:49:35.819Z,99.99
2018-08-23T09:50:36.163Z,99.99
2018-08-23T09:51:35.806Z,99.99
2018-08-23T09:52:35.798Z,99.99
2018-08-23T09:53:35.794Z,99.99
2018-08-23T09:54:36.053Z,99.99
2018-08-23T09:55:36.051Z,99.99
2018-08-23T09:56:36.088Z,99.99
2018-08-23T09:57:36.039Z,99.99
2018-08-23T09:58:35.770Z,99.99
2018-08-23T09:59:36.019Z,99.99
2018-08-23T10:00:36.019Z,99.99
2018-08-23T10:01:35.744Z,99.99
2018-08-23T10:02:35.741Z,99.99
2018-08-23T10:03:35.732Z,99.99
2018-08-23T10:04:36.090Z,99.99
2018-08-23T10:05:35.986Z,99.99
2018-08-23T10:06:35.717Z,99.99
2018-08-23T10:07:35.981Z,99.99
2018-08-23T10:08:35.700Z,99.99
2018-08-23T10:09:35.962Z,99.99
2018-08-23T10:10:35.742Z,99.99
2018-08-23T10:11:36.205Z,99.99
2018-08-23T10:12:35.950Z,99.99
2018-08-23T10:13:35.672Z,99.99
2018-08-23T10:14:35.934Z,99.99
2018-08-23T10:15:35.926Z,99.99
2018-08-23T10:16:35.657Z,99.99
2018-08-23T10:17:35.917Z,99.99
2018-08-23T10:18:35.907Z,99.99
2018-08-23T10:19:35.901Z,99.99
2018-08-23T10:20:35.898Z,99.99
2018-08-23T10:21:35.892Z,99.99
2018-08-23T10:22:35.623Z,99.99
2018-08-23T10:23:35.619Z,99.99
2018-08-23T10:24:35.881Z,99.99
2018-08-23T10:25:35.875Z,99.99
2018-08-23T10:26:35.950Z,99.99
2018-08-23T10:27:35.866Z,99.99
2018-08-23T10:28:35.855Z,99.99
2018-08-23T10:29:35.848Z,99.99
2018-08-23T10:30:35.846Z,99.99
2018-08-23T10:31:35.574Z,99.99
2018-08-23T10:32:35.837Z,99.99
2018-08-23T10:33:35.565Z,99.99
2018-08-23T10:34:35.556Z,99.99
2018-08-23T10:35:35.556Z,99.99
2018-08-23T10:36:35.553Z,99.99
2018-08-23T10:37:35.815Z,99.99
2018-08-23T10:38:35.539Z,99.99
2018-08-23T10:39:35.795Z,99.99
2018-08-23T10:40:35.796Z,99.99
2018-08-23T10:41:35.793Z,99.99
2018-08-23T10:42:35.789Z,99.99
2018-08-23T10:43:35.776Z,99.99
2018-08-23T10:44:35.521Z,99.99
2018-08-23T10:45:35.500Z,99.99
2018-08-23T10:46:35.494Z,99.99
2018-08-23T10:47:35.755Z,99.99
2018-08-23T10:48:35.488Z,99.99
2018-08-23T10:49:35.746Z,99.99
2018-08-23T10:50:35.883Z,99.99
2018-08-23T10:51:35.736Z,99.99
2018-08-23T10:52:35.730Z,99.99
2018-08-23T10:53:35.728Z,99.99
2018-08-23T10:54:35.920Z,99.99
2018-08-23T10:55:35.451Z,99.99
2018-08-23T10:56:35.448Z,99.99
2018-08-23T10:57:35.708Z,99.99
2018-08-23T10:58:35.449Z,99.99
2018-08-23T10:59:35.704Z,99.99
2018-08-23T11:00:35.696Z,99.99
2018-08-23T11:01:35.418Z,99.99
2018-08-23T11:02:35.689Z,99.99
2018-08-23T11:03:35.676Z,96.36
2018-08-23T11:04:35.673Z,97.08
2018-08-23T11:05:35.399Z,95.62
2018-08-23T11:06:35.396Z,99.99
2018-08-23T11:07:35.654Z,93.34
2018-08-23T11:08:35.649Z,96.45
2018-08-23T11:09:35.405Z,92.03
2018-08-23T11:10:35.645Z,88.38
2018-08-23T11:11:35.637Z,88.71
2018-08-23T11:12:35.627Z,87.06
2018-08-23T11:13:35.631Z,83.01
2018-08-23T11:14:35.622Z,83.69
2018-08-23T11:15:35.625Z,82.57
2018-08-23T11:16:35.719Z,80.52
2018-08-23T11:17:35.612Z,79.55
2018-08-23T11:18:35.612Z,82.67
2018-08-23T11:19:35.342Z,80.33
2018-08-23T11:20:35.600Z,78.13
2018-08-23T11:21:35.603Z,78.42
2018-08-23T11:22:35.607Z,76.31
2018-08-23T11:23:35.606Z,75.92
2018-08-23T11:24:35.337Z,72.94
2018-08-23T11:25:35.598Z,72.64
2018-08-23T11:26:35.336Z,72.68
2018-08-23T11:27:35.334Z,71.8
2018-08-23T11:28:35.601Z,71.31
2018-08-23T11:29:35.395Z,70.86
2018-08-23T11:30:35.386Z,69.79
2018-08-23T11:31:35.603Z,69.92
2018-08-23T11:32:35.610Z,69.07
2018-08-23T11:33:35.613Z,69.27
2018-08-23T11:34:35.346Z,69.27
2018-08-23T11:35:35.347Z,68.23
2018-08-23T11:36:35.617Z,68.32
2018-08-23T11:37:35.352Z,66.6
2018-08-23T11:38:35.615Z,66.66
2018-08-23T11:39:35.621Z,66.89
2018-08-23T11:40:35.630Z,68.42
2018-08-23T11:41:35.626Z,67.15
2018-08-23T11:42:35.390Z,67.9
2018-08-23T11:43:35.368Z,67.25
2018-08-23T11:44:35.635Z,67.38
2018-08-23T11:45:35.640Z,66.5
2018-08-23T11:46:35.641Z,66.14
2018-08-23T11:47:35.643Z,66.11
2018-08-23T11:48:35.648Z,66.66
2018-08-23T11:49:35.392Z,66.27
2018-08-23T11:50:35.396Z,65.42
2018-08-23T11:51:35.658Z,65.45
2018-08-23T11:52:35.662Z,66.96
2018-08-23T11:53:36.331Z,65.81
2018-08-23T11:54:35.670Z,65.55
2018-08-23T11:55:35.724Z,65.78
2018-08-23T11:56:35.413Z,64.34
2018-08-23T11:57:35.678Z,62.78
2018-08-23T11:58:35.799Z,62.78
2018-08-23T11:59:35.686Z,63.4
2018-08-23T12:00:35.689Z,62.32
2018-08-23T12:01:35.694Z,61.73
2018-08-23T12:02:35.717Z,62.29
2018-08-23T12:03:35.445Z,62.09
2018-08-23T12:04:35.444Z,63.56
2018-08-23T12:05:35.451Z,63.27
2018-08-23T12:06:35.821Z,63.66
2018-08-23T12:07:35.768Z,63.37
2018-08-23T12:08:35.737Z,62.38
2018-08-23T12:09:35.739Z,62.85
2018-08-23T12:10:35.471Z,62.55
2018-08-23T12:11:35.743Z,63.53
2018-08-23T12:12:35.479Z,61.96
2018-08-23T12:13:35.482Z,61.57
2018-08-23T12:14:35.749Z,61.7
2018-08-23T12:15:35.504Z,61.57
2018-08-23T12:16:35.502Z,61.6
2018-08-23T12:17:35.768Z,60.69
2018-08-23T12:18:35.772Z,62.16
2018-08-23T12:19:35.513Z,61.47
2018-08-23T12:20:35.779Z,61.77
2018-08-23T12:21:35.780Z,62.45
2018-08-23T12:22:35.792Z,61.54
2018-08-23T12:23:35.795Z,59.9
2018-08-23T12:24:35.794Z,59.01
2018-08-23T12:25:35.535Z,59.01
2018-08-23T12:26:35.906Z,59.61
2018-08-23T12:27:35.811Z,60.23
2018-08-23T12:28:35.815Z,59.48
2018-08-23T12:29:35.551Z,59.58
2018-08-23T12:30:35.819Z,59.67
2018-08-23T12:31:36.009Z,59.38
2018-08-23T12:32:35.567Z,59.48
2018-08-23T12:33:35.567Z,59.38
2018-08-23T12:34:35.576Z,60.19
2018-08-23T12:35:35.585Z,60.85
2018-08-23T12:36:35.854Z,60.63
2018-08-23T12:37:35.896Z,60.46
2018-08-23T12:38:35.867Z,60.75
2018-08-23T12:39:35.596Z,61.21
2018-08-23T12:40:35.596Z,61.51
2018-08-23T12:41:35.873Z,61.6
2018-08-23T12:42:35.607Z,61.02
2018-08-23T12:43:35.727Z,60.36
2018-08-23T12:44:35.620Z,59.7
2018-08-23T12:45:35.889Z,58.55
2018-08-23T12:46:35.696Z,60.19
2018-08-23T12:47:35.630Z,60.19
2018-08-23T12:48:35.630Z,61.6
2018-08-23T12:49:35.977Z,61.6
2018-08-23T12:50:35.640Z,62.98
2018-08-23T12:51:35.906Z,64.42
2018-08-23T12:52:35.649Z,65.75
2018-08-23T12:53:35.649Z,66.37
2018-08-23T12:54:35.855Z,67.41